Santa Barbara, California
Current Conditions -  °F | °C
As of 6:53 PM on Thursday 18 Dec 2014 (Local Time) from KSBA Reporting Station
Overcast Overcast  
Wind Chill: 58°   Ceiling: 3500
Heat Index: 58°   Visibility: 10mi
Dew Point: 51°   Wind: 3mph
Humidity: 78%   Direction: 330°NNW
Pressure: 30.19"   Gusts: NA
Location:  34.42°N, 119.69°W
Report Text: KSBA 190253Z 33003KT 10SM OVC035 14/11 A3019 RMK AO2 SLP221 T01440106 53013
Loading
Personal Weather Stations






























Interactive Weather Map New forecast layout! Learn more

10-Day Weather Forecast

Advertisements
Track Severe Weather on mobile